Estestar — 3ECR8 — position and weather

sailwx.info

Track history (hours):
 
Tides and Currents Weather Stations Pressure Air Temp Water Temp Dewpoint Dewpoint Depression Visibility Wind Speed Wind Dir Waves Ship Positions

Estestar

Last reported at 2014-Nov-23 02:32 UTC. Time now 2014-Nov-24 09:25 UTC.
Position N 32°59' E 014°04'.

Length 133 m; draft 4.4 m.

Type: Cargo ship. MMSI: 371448000.

Date/timePositionNaut miles runAvg speedWind from/ knotsBaromVisibWave heightAir tempDewpointWater temp
2014-Nov-23 02:32N 32°59' E 014°04'1111.0
2014-Nov-23 01:33N 32°54' E 014°15'  
2014-Nov-16 12:24N 35°29' E 014°41'2010.6
2014-Nov-16 10:31N 35°49' E 014°38'1010.0
2014-Nov-16 09:33N 35°58' E 014°33'6 5.9
2014-Nov-16 08:33N 35°59' E 014°26'0 0.0
2014-Nov-16 07:24N 35°59' E 014°26'0 0.0
2014-Nov-16 06:32N 35°59' E 014°26'0 0.1
2014-Nov-16 05:32N 35°59' E 014°26'0 0.1
2014-Nov-16 04:33N 35°59' E 014°26'1 0.8
2014-Nov-16 03:25N 36°00' E 014°26'8 8.9
2014-Nov-16 02:32N 36°06' E 014°19'1110.1
2014-Nov-16 01:28N 36°07' E 014°06'10 9.8
2014-Nov-16 00:25N 36°08' E 013°53'9 9.8
2014-Nov-15 23:33N 36°12' E 013°44'10 9.7
2014-Nov-15 22:33N 36°16' E 013°33'10 9.7
2014-Nov-15 21:33N 36°20' E 013°22'5 5.2
2014-Nov-15 20:33N 36°22' E 013°16'4 3.5
2014-Nov-15 19:25N 36°25' E 013°13'10 9.1
2014-Nov-15 18:21N 36°30' E 013°02'10 9.5
2014-Nov-15 17:16N 36°35' E 012°51'7 9.3
2014-Nov-15 16:33N 36°38' E 012°44'284 9.1
2014-Nov-14 09:31N 40°54' E 010°04'140 9.8
2014-Nov-13 19:15N 43°13' E 009°41'6 9.2
2014-Nov-13 18:33N 43°19' E 009°43'9 9.2
2014-Nov-13 17:33N 43°28' E 009°45'9 9.4
2014-Nov-13 16:33N 43°37' E 009°47'9 9.3
2014-Nov-13 15:33N 43°46' E 009°49'9 9.2
2014-Nov-13 14:33N 43°56' E 009°51'9 8.6
2014-Nov-13 13:33N 44°04' E 009°51'2 2.3
2014-Nov-13 12:31N 44°07' E 009°50'0 0.0
2014-Nov-13 11:31N 44°07' E 009°50'0 0.0
2014-Nov-13 10:31N 44°06' E 009°50'0 0.0
2014-Nov-13 09:31N 44°07' E 009°50'0 0.0
2014-Nov-13 08:31N 44°07' E 009°50'0 0.0
2014-Nov-13 07:31N 44°07' E 009°50'0 0.0
2014-Nov-13 06:31N 44°07' E 009°50'0 0.0
2014-Nov-13 05:31N 44°07' E 009°50'0 0.0
2014-Nov-13 04:31N 44°07' E 009°50'0 0.0
2014-Nov-13 03:31N 44°07' E 009°50'  
Track history (hours):
 
Tides and Currents Weather Stations Pressure Air Temp Water Temp Dewpoint Dewpoint Depression Visibility Wind Speed Wind Dir Waves Ship Positions

Estestar

Last reported at 2014-Nov-23 02:32 UTC. Time now 2014-Nov-24 09:25 UTC.
Position N 32°59' E 014°04'.

Length 133 m; draft 4.4 m.

Type: Cargo ship. MMSI: 371448000.

Date/timePositionNaut miles runAvg speedWind from/ knotsBaromVisibWave heightAir tempDewpointWater temp
2014-Nov-23 02:32N 32°59' E 014°04'1111.0
2014-Nov-23 01:33N 32°54' E 014°15'  
2014-Nov-16 12:24N 35°29' E 014°41'2010.6
2014-Nov-16 10:31N 35°49' E 014°38'1010.0
2014-Nov-16 09:33N 35°58' E 014°33'6 5.9
2014-Nov-16 08:33N 35°59' E 014°26'0 0.0
2014-Nov-16 07:24N 35°59' E 014°26'0 0.0
2014-Nov-16 06:32N 35°59' E 014°26'0 0.1
2014-Nov-16 05:32N 35°59' E 014°26'0 0.1
2014-Nov-16 04:33N 35°59' E 014°26'1 0.8
2014-Nov-16 03:25N 36°00' E 014°26'8 8.9
2014-Nov-16 02:32N 36°06' E 014°19'1110.1
2014-Nov-16 01:28N 36°07' E 014°06'10 9.8
2014-Nov-16 00:25N 36°08' E 013°53'9 9.8
2014-Nov-15 23:33N 36°12' E 013°44'10 9.7
2014-Nov-15 22:33N 36°16' E 013°33'10 9.7
2014-Nov-15 21:33N 36°20' E 013°22'5 5.2
2014-Nov-15 20:33N 36°22' E 013°16'4 3.5
2014-Nov-15 19:25N 36°25' E 013°13'10 9.1
2014-Nov-15 18:21N 36°30' E 013°02'10 9.5
2014-Nov-15 17:16N 36°35' E 012°51'7 9.3
2014-Nov-15 16:33N 36°38' E 012°44'284 9.1
2014-Nov-14 09:31N 40°54' E 010°04'140 9.8
2014-Nov-13 19:15N 43°13' E 009°41'6 9.2
2014-Nov-13 18:33N 43°19' E 009°43'9 9.2
2014-Nov-13 17:33N 43°28' E 009°45'9 9.4
2014-Nov-13 16:33N 43°37' E 009°47'9 9.3
2014-Nov-13 15:33N 43°46' E 009°49'9 9.2
2014-Nov-13 14:33N 43°56' E 009°51'9 8.6
2014-Nov-13 13:33N 44°04' E 009°51'2 2.3
2014-Nov-13 12:31N 44°07' E 009°50'0 0.0
2014-Nov-13 11:31N 44°07' E 009°50'0 0.0
2014-Nov-13 10:31N 44°06' E 009°50'0 0.0
2014-Nov-13 09:31N 44°07' E 009°50'0 0.0
2014-Nov-13 08:31N 44°07' E 009°50'0 0.0
2014-Nov-13 07:31N 44°07' E 009°50'0 0.0
2014-Nov-13 06:31N 44°07' E 009°50'0 0.0
2014-Nov-13 05:31N 44°07' E 009°50'0 0.0
2014-Nov-13 04:31N 44°07' E 009°50'0 0.0
2014-Nov-13 03:31N 44°07' E 009°50'  

Dump ship's entire track history